Time;durP1;ratioP1;P1;durP2;ratioP2;P2;SDS_P1;SDS_P2;PMS_P1;PMS_P2;Temp;Humidity;BMP_temperature;BMP_pressure;BME280_temperature;BME280_humidity;BME280_pressure;Samples;Min_cycle;Max_cycle;Signal;HPM_P1;HPM_P2
2022/07/05 00:00:57;;;;;;;12.35;6.05;;;;;;;31.37;27.64;99208.72;5056755;28;20055;-78
2022/07/05 00:03:23;;;;;;;15.70;6.35;;;;;;;31.55;27.44;99207.84;5048687;28;20083;-77
2022/07/05 00:05:49;;;;;;;16.30;7.20;;;;;;;31.69;27.31;99200.38;5038750;28;20076;-78
2022/07/05 00:08:18;;;;;;;16.42;7.32;;;;;;;31.68;27.22;99208.94;5039183;28;20044;-79
2022/07/05 00:10:45;;;;;;;13.10;7.13;;;;;;;31.47;28.43;99194.00;5072790;28;20052;-77
2022/07/05 00:13:11;;;;;;;15.75;7.10;;;;;;;31.54;27.69;99210.91;5038323;28;20040;-76
2022/07/05 00:15:36;;;;;;;17.98;7.10;;;;;;;31.31;28.13;99201.72;5073045;28;20040;-75
2022/07/05 00:18:03;;;;;;;17.98;6.70;;;;;;;31.48;27.73;99212.09;5038470;28;20091;-74
2022/07/05 00:20:31;;;;;;;16.83;7.35;;;;;;;31.47;27.55;99218.72;5056685;28;20040;-76
2022/07/05 00:22:57;;;;;;;16.98;7.30;;;;;;;31.19;27.89;99220.56;5043348;28;20306;-76
2022/07/05 00:25:23;;;;;;;21.25;6.65;;;;;;;30.84;28.66;99215.72;5069205;28;20052;-73
2022/07/05 00:27:49;;;;;;;19.08;7.75;;;;;;;30.51;29.27;99223.06;5038399;28;20044;-78
2022/07/05 00:30:14;;;;;;;20.80;6.90;;;;;;;30.32;29.56;99224.19;5038366;28;20051;-77
2022/07/05 00:32:41;;;;;;;19.40;6.88;;;;;;;30.03;30.23;99220.72;5054915;28;20053;-75
2022/07/05 00:35:12;;;;;;;16.70;8.00;;;;;;;29.95;31.16;99218.66;5021268;28;20032;-76
2022/07/05 00:37:38;;;;;;;20.95;8.82;;;;;;;29.79;31.43;99217.19;5070827;28;20050;-75
2022/07/05 00:40:07;;;;;;;18.02;8.13;;;;;;;29.78;31.67;99210.94;5036882;28;20045;-76
2022/07/05 00:42:33;;;;;;;19.08;8.18;;;;;;;29.55;31.57;99214.47;5054981;28;20047;-75
2022/07/05 00:45:04;;;;;;;23.55;7.90;;;;;;;29.49;31.29;99221.91;5054974;28;20559;-75
2022/07/05 00:47:31;;;;;;;20.13;7.07;;;;;;;29.13;31.68;99209.72;5038429;28;20044;-76
2022/07/05 00:49:57;;;;;;;13.90;6.63;;;;;;;28.98;32.03;99209.84;5071894;28;20144;-78
2022/07/05 00:52:23;;;;;;;14.77;6.35;;;;;;;28.87;32.24;99213.75;5038504;28;20130;-77
2022/07/05 00:54:48;;;;;;;12.30;6.30;;;;;;;28.74;32.61;99211.66;5056028;28;20067;-77
2022/07/05 00:57:15;;;;;;;9.95;6.95;;;;;;;28.75;32.55;99218.78;5055690;28;20076;-77
2022/07/05 00:59:41;;;;;;;14.68;6.90;;;;;;;28.69;33.00;99217.16;5039130;28;20609;-77
2022/07/05 01:02:06;;;;;;;15.40;8.60;;;;;;;28.54;33.82;99222.75;5038637;28;20076;-77
2022/07/05 01:04:32;;;;;;;17.42;8.13;;;;;;;28.50;33.95;99226.34;5037833;28;20073;-77
2022/07/05 01:06:58;;;;;;;11.25;7.07;;;;;;;28.36;34.06;99220.69;5037357;28;20080;-77
2022/07/05 01:09:25;;;;;;;15.15;7.57;;;;;;;28.45;33.63;99231.81;5038369;28;20499;-75
2022/07/05 01:11:52;;;;;;;11.25;6.80;;;;;;;28.53;33.37;99231.25;5039072;28;20051;-77
2022/07/05 01:14:22;;;;;;;18.63;7.55;;;;;;;28.69;33.23;99225.38;5072174;28;20044;-76
2022/07/05 01:16:53;;;;;;;15.05;7.40;;;;;;;28.66;32.94;99220.47;5080020;28;20048;-77
2022/07/05 01:19:20;;;;;;;18.98;7.05;;;;;;;28.61;33.01;99214.25;5058697;28;20534;-75
2022/07/05 01:21:48;;;;;;;16.75;6.82;;;;;;;28.65;33.12;99227.06;5092016;28;20047;-75
2022/07/05 01:24:16;;;;;;;27.65;7.85;;;;;;;28.66;33.27;99227.88;5057236;28;20047;-76
2022/07/05 01:26:45;;;;;;;21.35;8.00;;;;;;;28.51;33.41;99222.53;5074293;28;20101;-76
2022/07/05 01:29:11;;;;;;;21.15;6.65;;;;;;;28.30;33.46;99223.72;5057804;28;20048;-77
2022/07/05 01:31:38;;;;;;;15.20;6.45;;;;;;;28.31;33.97;99217.97;5024032;28;20076;-77
2022/07/05 01:34:05;;;;;;;12.65;6.68;;;;;;;28.34;33.74;99222.88;5073962;28;20500;-77
2022/07/05 01:36:32;;;;;;;17.15;6.75;;;;;;;28.28;33.47;99232.19;5057743;28;20036;-75
2022/07/05 01:38:59;;;;;;;14.48;6.13;;;;;;;28.34;33.81;99216.59;5057254;28;20055;-77
2022/07/05 01:41:25;;;;;;;14.90;6.57;;;;;;;28.27;33.58;99219.66;5073826;28;20090;-77
2022/07/05 01:43:51;;;;;;;10.85;6.07;;;;;;;28.25;33.42;99234.69;5056972;28;20087;-74
2022/07/05 01:46:18;;;;;;;16.90;6.53;;;;;;;28.24;33.85;99222.13;5023834;28;20132;-77
2022/07/05 01:48:47;;;;;;;9.13;6.00;;;;;;;28.33;33.40;99210.31;5074178;28;20040;-76
2022/07/05 01:51:22;;;;;;;;;;;;;;;28.49;33.01;99219.25;5074102;28;20055;-75
2022/07/05 01:53:52;;;;;;;10.00;5.88;;;;;;;28.38;33.15;99215.75;5023586;28;20306;-78
2022/07/05 01:56:18;;;;;;;15.73;5.87;;;;;;;28.20;33.39;99210.13;5041676;28;20123;-79
2022/07/05 01:58:45;;;;;;;11.48;6.40;;;;;;;28.20;33.33;99210.13;5074504;28;20051;-78
2022/07/05 02:01:13;;;;;;;9.23;5.90;;;;;;;28.28;33.32;99215.81;5025452;28;20047;-79
2022/07/05 02:03:40;;;;;;;14.32;5.72;;;;;;;28.04;33.25;99190.28;5058578;28;20400;-73
2022/07/05 02:06:07;;;;;;;9.02;6.20;;;;;;;28.14;33.85;99205.81;5073248;28;20044;-73
2022/07/05 02:08:33;;;;;;;10.32;5.82;;;;;;;28.20;33.45;99216.41;5056445;28;20044;-72
2022/07/05 02:10:59;;;;;;;11.20;6.25;;;;;;;28.14;33.60;99206.59;5056081;28;20514;-73
2022/07/05 02:13:25;;;;;;;10.65;6.55;;;;;;;28.10;33.77;99208.28;5023404;28;20076;-75
2022/07/05 02:15:51;;;;;;;10.57;6.45;;;;;;;27.93;33.94;99203.19;5056237;28;20117;-73
2022/07/05 02:18:18;;;;;;;12.82;6.28;;;;;;;28.06;33.59;99220.88;5023060;28;20052;-73
2022/07/05 02:20:44;;;;;;;12.82;6.07;;;;;;;28.10;33.38;99202.81;5055309;28;20039;-73
2022/07/05 02:23:11;;;;;;;13.57;6.35;;;;;;;28.19;33.38;99201.13;5023603;28;20039;-73
2022/07/05 02:25:38;;;;;;;13.60;6.32;;;;;;;28.37;33.40;99232.44;5056602;28;20040;-71
2022/07/05 02:28:11;;;;;;;13.18;7.47;;;;;;;28.28;33.27;99228.66;5056856;28;20036;-73
2022/07/05 02:30:38;;;;;;;14.38;7.22;;;;;;;28.28;33.08;99221.25;5039669;28;20063;-73
2022/07/05 02:33:05;;;;;;;11.32;6.88;;;;;;;28.30;33.13;99227.28;5023232;28;20061;-74
2022/07/05 02:35:31;;;;;;;15.88;7.30;;;;;;;28.27;33.23;99213.34;5056013;28;20036;-72
2022/07/05 02:37:57;;;;;;;13.48;6.75;;;;;;;28.27;33.30;99219.66;5022918;28;20075;-75
2022/07/05 02:40:23;;;;;;;13.07;6.85;;;;;;;28.40;32.97;99221.72;5039781;28;20044;-75
2022/07/05 02:42:52;;;;;;;10.82;6.57;;;;;;;28.41;32.28;99228.03;5040633;28;20044;-75
2022/07/05 02:45:19;;;;;;;11.05;7.53;;;;;;;28.48;32.48;99223.91;5039698;28;20052;-74
2022/07/05 02:47:51;;;;;;;13.20;7.75;;;;;;;28.64;32.78;99239.09;5024372;28;20040;-75
2022/07/05 02:50:18;;;;;;;15.57;7.57;;;;;;;28.67;32.81;99241.25;5023572;28;20066;-74
2022/07/05 02:52:49;;;;;;;11.48;6.72;;;;;;;28.84;32.22;99240.84;5056500;28;20048;-74
2022/07/05 02:55:16;;;;;;;15.48;5.97;;;;;;;28.60;31.93;99246.22;5090672;28;21042;-74
2022/07/05 02:57:43;;;;;;;21.60;11.25;;;;;;;28.79;33.19;99232.69;5039972;28;20044;-74
2022/07/05 03:00:12;;;;;;;19.85;10.25;;;;;;;28.88;32.90;99239.97;5056506;28;20055;-73
2022/07/05 03:02:42;;;;;;;18.02;7.70;;;;;;;28.84;32.19;99238.09;5040138;28;20036;-74
2022/07/05 03:05:09;;;;;;;15.75;9.52;;;;;;;28.85;32.73;99239.72;5023526;28;20048;-73
2022/07/05 03:07:37;;;;;;;16.65;6.63;;;;;;;28.78;32.34;99242.00;5041440;28;20127;-74
2022/07/05 03:10:04;;;;;;;14.82;7.85;;;;;;;28.89;32.92;99249.81;5025314;28;20560;-75
2022/07/05 03:12:31;;;;;;;13.32;6.85;;;;;;;28.70;31.97;99221.56;5023645;28;20482;-76
2022/07/05 03:14:57;;;;;;;15.70;6.60;;;;;;;28.81;32.72;99239.50;5056652;28;20495;-74
2022/07/05 03:17:23;;;;;;;15.05;6.45;;;;;;;28.87;32.20;99249.31;5022946;28;20107;-75
2022/07/05 03:19:50;;;;;;;15.70;7.18;;;;;;;28.76;32.46;99216.84;5055906;28;20046;-75
2022/07/05 03:22:18;;;;;;;9.93;6.07;;;;;;;28.87;32.00;99249.31;5072208;28;20659;-76
2022/07/05 03:24:44;;;;;;;11.57;6.38;;;;;;;28.89;32.13;99241.59;5022746;28;20046;-72
2022/07/05 03:27:11;;;;;;;12.68;7.07;;;;;;;28.92;32.02;99241.03;5039156;28;20075;-75
2022/07/05 03:29:39;;;;;;;8.43;6.78;;;;;;;29.03;32.02;99242.59;5038929;28;20059;-75
2022/07/05 03:32:06;;;;;;;9.52;6.13;;;;;;;29.13;31.73;99256.22;5076252;28;20040;-75
2022/07/05 03:34:33;;;;;;;10.95;7.47;;;;;;;29.04;31.53;99255.16;5043158;28;20036;-74
2022/07/05 03:37:02;;;;;;;11.93;6.53;;;;;;;29.17;31.29;99254.53;5027045;28;20058;-75
2022/07/05 03:39:28;;;;;;;9.70;6.40;;;;;;;29.17;31.08;99231.81;5058603;28;20482;-74
2022/07/05 03:41:57;;;;;;;12.82;7.63;;;;;;;29.40;31.12;99250.19;5059988;28;20117;-74
2022/07/05 03:44:26;;;;;;;;;;;;;;;29.57;31.29;99256.84;5027759;28;20461;-75
2022/07/05 03:46:55;;;;;;;13.75;6.70;;;;;;;29.34;31.39;99249.44;5075903;28;19916;-76
2022/07/05 03:49:22;;;;;;;11.88;6.25;;;;;;;29.27;31.53;99268.13;5042580;28;20104;-74
2022/07/05 03:51:49;;;;;;;13.77;6.90;;;;;;;29.22;31.91;99259.13;5076187;28;20047;-75
2022/07/05 03:54:15;;;;;;;12.15;7.18;;;;;;;29.23;31.85;99268.97;5026706;28;20039;-75
2022/07/05 03:56:40;;;;;;;11.55;6.35;;;;;;;29.13;31.69;99267.16;5042351;28;20072;-76
2022/07/05 03:59:10;;;;;;;15.40;7.60;;;;;;;29.21;32.30;99269.28;5075836;28;20526;-76
2022/07/05 04:01:36;;;;;;;17.45;7.63;;;;;;;29.33;32.76;99272.44;5076062;28;20472;-77
2022/07/05 04:04:03;;;;;;;10.70;7.40;;;;;;;29.22;32.77;99267.34;5059437;28;20048;-74
2022/07/05 04:06:32;;;;;;;11.90;7.38;;;;;;;29.17;32.63;99268.19;5059693;28;20476;-78
2022/07/05 04:09:00;;;;;;;10.75;7.03;;;;;;;29.21;32.50;99266.53;5026781;28;20389;-74
2022/07/05 04:11:26;;;;;;;10.10;7.28;;;;;;;29.31;32.60;99262.88;5043878;28;20044;-76
2022/07/05 04:13:53;;;;;;;15.73;7.03;;;;;;;29.19;32.32;99274.19;5067758;28;20079;-76
2022/07/05 04:16:20;;;;;;;13.00;7.40;;;;;;;29.29;32.47;99274.09;5052169;28;20048;-77
2022/07/05 04:18:46;;;;;;;13.80;6.75;;;;;;;29.38;32.64;99274.31;5069710;28;20051;-75
2022/07/05 04:21:15;;;;;;;12.27;7.70;;;;;;;29.53;32.54;99279.63;5068181;28;20071;-75
2022/07/05 04:23:43;;;;;;;15.23;7.32;;;;;;;29.49;32.61;99284.84;5076374;28;20055;-76
2022/07/05 04:26:10;;;;;;;12.65;7.07;;;;;;;29.39;32.42;99290.44;5043053;28;20415;-76
2022/07/05 04:28:43;;;;;;;14.63;6.97;;;;;;;29.14;32.74;99278.88;5059885;28;20101;-76
2022/07/05 04:31:13;;;;;;;9.45;7.40;;;;;;;29.38;32.94;99287.97;5042824;28;20059;-76
2022/07/05 04:33:43;;;;;;;10.13;6.53;;;;;;;29.54;32.67;99284.78;5092144;28;20047;-75
2022/07/05 04:36:11;;;;;;;14.93;7.38;;;;;;;29.61;32.42;99287.19;5042503;28;20415;-75
2022/07/05 04:38:41;;;;;;;16.02;7.05;;;;;;;29.59;32.41;99292.13;5042103;28;20044;-76
2022/07/05 04:41:09;;;;;;;13.15;7.38;;;;;;;29.79;32.15;99283.72;5074934;28;20075;-76
2022/07/05 04:43:38;;;;;;;12.32;7.53;;;;;;;29.70;32.34;99282.75;5058073;28;20043;-76
2022/07/05 04:46:07;;;;;;;8.50;7.18;;;;;;;29.57;31.95;99273.28;5075070;28;20554;-76
2022/07/05 04:48:34;;;;;;;10.90;6.82;;;;;;;29.73;32.31;99284.06;5074868;28;20040;-76
2022/07/05 04:51:00;;;;;;;10.27;6.93;;;;;;;29.74;31.99;99272.03;5076147;28;20055;-76
2022/07/05 04:53:29;;;;;;;12.20;7.20;;;;;;;29.80;32.28;99284.56;5043306;28;20086;-75
2022/07/05 04:55:55;;;;;;;18.27;6.78;;;;;;;29.92;31.68;99294.00;5075217;28;20072;-75
2022/07/05 04:58:20;;;;;;;9.55;6.68;;;;;;;30.03;31.99;99289.22;5041646;28;20036;-77
2022/07/05 05:00:46;;;;;;;10.85;6.53;;;;;;;30.26;31.89;99291.94;5060825;28;20044;-79
2022/07/05 05:03:12;;;;;;;17.75;7.35;;;;;;;30.14;32.34;99274.28;5077198;28;20431;-78
2022/07/05 05:05:42;;;;;;;16.48;6.65;;;;;;;30.23;31.48;99283.50;5078088;28;20067;-78
2022/07/05 05:08:09;;;;;;;15.95;6.07;;;;;;;30.29;31.47;99282.31;5041937;28;21108;-78
2022/07/05 05:10:36;;;;;;;12.52;6.93;;;;;;;30.42;31.32;99281.56;5092188;28;20100;-79
2022/07/05 05:13:06;;;;;;;10.75;6.90;;;;;;;30.50;31.34;99259.81;5076301;28;20040;-78
2022/07/05 05:15:32;;;;;;;8.68;7.07;;;;;;;30.65;31.41;99284.25;5061067;28;20040;-77
2022/07/05 05:17:59;;;;;;;15.45;7.10;;;;;;;30.80;31.59;99288.72;5073060;28;20052;-75
2022/07/05 05:20:31;;;;;;;15.27;7.40;;;;;;;30.96;31.52;99287.38;5073348;28;20045;-77
2022/07/05 05:22:57;;;;;;;13.23;6.82;;;;;;;31.02;31.54;99289.75;5021868;28;20476;-77
2022/07/05 05:25:23;;;;;;;13.27;6.43;;;;;;;31.21;31.16;99288.88;5055119;28;20044;-73
2022/07/05 05:27:50;;;;;;;16.02;7.43;;;;;;;31.36;31.13;99275.72;5038365;28;20143;-78
2022/07/05 05:30:19;;;;;;;12.00;6.50;;;;;;;31.61;30.85;99282.69;5038498;28;20135;-75
2022/07/05 05:32:46;;;;;;;15.70;6.57;;;;;;;31.53;30.47;99286.94;5072091;28;20056;-79
2022/07/05 05:35:12;;;;;;;11.98;5.53;;;;;;;31.57;30.13;99293.44;5040167;28;20060;-78
2022/07/05 05:37:52;;;;;;;19.08;6.93;;;;;;;31.91;29.82;99293.09;5077061;28;20397;-79
2022/07/05 05:40:22;;;;;;;11.85;6.05;;;;;;;31.93;30.07;99291.69;5080596;28;20044;-79
2022/07/05 05:42:49;;;;;;;17.95;6.60;;;;;;;31.88;29.25;99286.28;5064084;28;20044;-75
2022/07/05 05:45:15;;;;;;;24.73;6.30;;;;;;;32.02;29.06;99284.34;5064988;28;20048;-73
2022/07/05 05:48:05;;;;;;;17.20;5.70;;;;;;;32.20;28.89;99275.16;5031230;28;20131;-73
2022/07/05 05:50:34;;;;;;;14.38;6.18;;;;;;;32.43;28.66;99274.13;5061536;28;20044;-75
2022/07/05 05:53:00;;;;;;;10.48;5.78;;;;;;;32.31;28.50;99262.00;5067239;28;20059;-72
2022/07/05 05:55:27;;;;;;;11.48;5.47;;;;;;;32.53;28.40;99278.59;5077565;28;20052;-73
2022/07/05 05:57:54;;;;;;;13.05;5.50;;;;;;;32.67;28.21;99290.38;5037553;28;20048;-79
2022/07/05 06:00:21;;;;;;;18.63;5.90;;;;;;;32.66;27.16;99284.06;5053637;28;20416;-74
2022/07/05 06:02:49;;;;;;;11.23;5.85;;;;;;;32.77;27.75;99290.13;5053806;28;20045;-73
2022/07/05 06:05:15;;;;;;;12.02;6.00;;;;;;;32.79;27.25;99279.63;5070225;28;20128;-74
2022/07/05 06:07:49;;;;;;;13.40;5.97;;;;;;;33.16;26.89;99275.72;5020231;28;20066;-73
2022/07/05 06:10:20;;;;;;;14.10;6.07;;;;;;;33.13;27.52;99287.34;5071047;28;20047;-73
2022/07/05 06:12:47;;;;;;;14.18;6.00;;;;;;;33.18;27.56;99282.56;5037647;28;20090;-75
2022/07/05 06:15:25;;;;;;;12.35;6.20;;;;;;;33.26;26.98;99269.97;5054079;28;20036;-74
2022/07/05 06:17:51;;;;;;;13.80;6.43;;;;;;;33.43;26.94;99281.09;5038030;28;20060;-74
2022/07/05 06:20:18;;;;;;;9.13;5.55;;;;;;;33.77;26.88;99281.25;5053557;28;20040;-74
2022/07/05 06:22:45;;;;;;;14.23;5.70;;;;;;;33.68;26.64;99288.66;5053353;28;20499;-74
2022/07/05 06:25:12;;;;;;;15.30;6.13;;;;;;;34.03;26.02;99293.19;5036424;28;20139;-75
2022/07/05 06:27:39;;;;;;;27.50;6.10;;;;;;;34.02;25.53;99278.63;5036519;28;20040;-74
2022/07/05 06:30:06;;;;;;;13.85;5.50;;;;;;;34.32;25.82;99290.72;5052865;28;20500;-74
2022/07/05 06:32:32;;;;;;;22.95;6.00;;;;;;;33.85;25.73;99289.56;5035817;28;20427;-73
2022/07/05 06:34:58;;;;;;;22.67;5.90;;;;;;;34.23;25.60;99285.16;5036130;28;20044;-72
2022/07/05 06:37:23;;;;;;;21.08;10.52;;;;;;;34.24;25.85;99281.25;5086293;28;20036;-74
2022/07/05 06:39:49;;;;;;;13.10;8.68;;;;;;;34.37;25.73;99284.22;5052631;28;20394;-73
2022/07/05 06:42:16;;;;;;;12.13;5.70;;;;;;;34.43;25.53;99277.44;5035639;28;20365;-73
2022/07/05 06:44:42;;;;;;;14.68;6.00;;;;;;;34.71;25.74;99279.56;5052758;28;20097;-73
2022/07/05 06:47:08;;;;;;;18.98;6.38;;;;;;;34.76;25.48;99282.16;5052750;28;20083;-73
2022/07/05 06:49:34;;;;;;;16.33;6.03;;;;;;;34.96;24.69;99275.19;5019776;28;20460;-74
2022/07/05 06:52:00;;;;;;;15.93;5.40;;;;;;;35.06;24.32;99277.66;5052720;28;21124;-75
2022/07/05 06:54:25;;;;;;;11.90;5.78;;;;;;;35.05;24.74;99276.81;5069563;28;20056;-73
2022/07/05 06:56:53;;;;;;;12.30;5.68;;;;;;;35.13;24.69;99270.47;5035720;28;20044;-73
2022/07/05 06:59:22;;;;;;;11.00;5.57;;;;;;;35.28;24.53;99260.84;5052370;28;20222;-73
2022/07/05 07:01:48;;;;;;;12.07;5.28;;;;;;;35.25;23.90;99281.66;5035545;28;20523;-74
2022/07/05 07:04:13;;;;;;;12.18;5.25;;;;;;;35.14;23.56;99271.28;5052144;28;20052;-74
2022/07/05 07:06:40;;;;;;;13.75;4.80;;;;;;;35.05;23.34;99271.28;5038689;28;20041;-73
2022/07/05 07:09:17;;;;;;;12.60;5.00;;;;;;;35.15;23.06;99262.66;5041171;28;20063;-72
2022/07/05 07:11:44;;;;;;;12.52;5.10;;;;;;;35.36;22.78;99271.91;5068356;28;20078;-73
2022/07/05 07:14:10;;;;;;;9.60;4.70;;;;;;;35.47;22.96;99270.41;5073693;28;20404;-74
2022/07/05 07:16:36;;;;;;;21.40;5.80;;;;;;;35.58;22.34;99268.91;5055546;28;20048;-75
2022/07/05 07:19:02;;;;;;;17.25;5.35;;;;;;;35.71;22.25;99270.66;5039075;28;20443;-76
2022/07/05 07:21:28;;;;;;;9.35;4.85;;;;;;;36.10;22.31;99269.53;5022832;28;20082;-73
2022/07/05 07:23:54;;;;;;;7.57;4.82;;;;;;;36.37;22.08;99262.69;5055191;28;20051;-75
2022/07/05 07:26:20;;;;;;;9.55;5.15;;;;;;;36.62;20.78;99250.63;5055299;28;20132;-75
2022/07/05 07:28:46;;;;;;;6.72;4.47;;;;;;;37.04;20.74;99263.31;5027023;28;20044;-79
2022/07/05 07:31:12;;;;;;;12.10;4.50;;;;;;;37.50;20.00;99257.47;5039580;28;20045;-77
2022/07/05 07:33:38;;;;;;;9.35;4.88;;;;;;;37.82;19.33;99261.31;5039641;28;20040;-80
2022/07/05 07:36:04;;;;;;;8.90;4.55;;;;;;;38.51;18.72;99268.34;5020722;28;20072;-77
2022/07/05 07:38:31;;;;;;;14.77;5.03;;;;;;;38.80;18.33;99261.66;5021519;28;20059;-77
2022/07/05 07:40:57;;;;;;;11.40;4.70;;;;;;;39.40;17.75;99266.16;5038575;28;20106;-77
2022/07/05 07:43:24;;;;;;;10.57;4.57;;;;;;;40.28;16.76;99255.34;5055324;28;20131;-77
2022/07/05 07:45:51;;;;;;;6.32;4.18;;;;;;;41.10;15.73;99248.41;5055457;28;20069;-76
2022/07/05 07:48:18;;;;;;;21.23;4.95;;;;;;;42.07;15.08;99269.25;5055807;28;20497;-75
2022/07/05 07:50:44;;;;;;;6.25;4.65;;;;;;;43.84;13.61;99246.69;5057189;28;20045;-78
2022/07/05 07:53:10;;;;;;;12.23;4.35;;;;;;;45.87;12.36;99252.44;5039724;28;20048;-77
2022/07/05 07:55:36;;;;;;;7.40;3.90;;;;;;;47.78;10.78;99272.22;5021852;28;20037;-76
2022/07/05 07:58:03;;;;;;;10.10;4.10;;;;;;;47.67;10.29;99277.94;5022290;28;21031;-75
2022/07/05 08:00:29;;;;;;;13.57;4.60;;;;;;;47.24;10.55;99266.13;5023150;28;20044;-75
2022/07/05 08:02:55;;;;;;;10.93;4.10;;;;;;;48.20;9.68;99272.66;5073492;28;20048;-81
2022/07/05 08:05:24;;;;;;;12.70;4.57;;;;;;;48.72;9.82;99264.88;5023720;28;20040;-79
2022/07/05 08:07:52;;;;;;;11.18;3.97;;;;;;;50.72;8.48;99255.25;5072139;28;20113;-78
2022/07/05 08:10:17;;;;;;;11.90;3.92;;;;;;;51.51;7.58;99262.34;5053132;28;20064;-79
2022/07/05 08:12:45;;;;;;;10.10;3.60;;;;;;;53.07;7.05;99264.22;5056847;28;20127;-76
2022/07/05 08:15:11;;;;;;;13.27;4.20;;;;;;;54.58;5.95;99267.66;5058517;28;20052;-81
2022/07/05 08:21:30;;;;;;;12.23;3.42;;;;;;;54.88;5.36;99257.63;5069365;28;20138;-84
2022/07/05 08:23:13;;;;;;;5.35;2.95;;;;;;;55.65;5.15;99248.81;5080411;28;20047;-79
2022/07/05 08:25:41;;;;;;;5.25;3.30;;;;;;;55.39;4.98;99263.72;5094427;28;20039;-80
2022/07/05 08:28:06;;;;;;;6.00;3.22;;;;;;;53.89;5.58;99256.69;5044446;28;20048;-80
2022/07/05 08:30:33;;;;;;;9.68;3.28;;;;;;;53.51;5.68;99255.94;5077766;28;20051;-81
2022/07/05 08:33:00;;;;;;;7.70;3.28;;;;;;;54.33;5.59;99249.91;5060703;28;20070;-79
2022/07/05 08:35:26;;;;;;;5.97;3.10;;;;;;;54.71;5.10;99259.06;5044688;28;20036;-82
2022/07/05 08:37:52;;;;;;;5.05;3.00;;;;;;;54.47;5.21;99253.00;5107092;28;20089;-78
2022/07/05 08:40:22;;;;;;;6.80;3.00;;;;;;;55.10;4.70;99249.84;5072831;28;20047;-85
2022/07/05 08:42:52;;;;;;;6.32;2.78;;;;;;;56.19;4.59;99233.88;5074410;28;20075;-83
2022/07/05 08:45:18;;;;;;;4.03;3.20;;;;;;;57.05;3.98;99235.22;5042044;28;20504;-80
2022/07/05 08:47:44;;;;;;;9.05;2.58;;;;;;;56.25;4.24;99235.59;5075250;28;20583;-79
2022/07/05 08:50:14;;;;;;;8.82;2.88;;;;;;;56.21;4.28;99234.19;5056824;28;20052;-77
2022/07/05 08:52:40;;;;;;;7.18;2.83;;;;;;;56.81;3.94;99229.38;5062022;28;20071;-78
2022/07/05 08:55:07;;;;;;;5.30;2.60;;;;;;;57.55;3.57;99231.50;5024359;28;20082;-79
2022/07/05 08:57:38;;;;;;;9.98;2.67;;;;;;;58.17;2.96;99243.03;5057240;28;20444;-78
2022/07/05 09:00:06;;;;;;;10.57;3.03;;;;;;;58.54;3.00;99227.13;5022472;28;20112;-80
2022/07/05 09:02:32;;;;;;;5.30;2.50;;;;;;;58.08;3.15;99238.16;5057312;28;20048;-79
2022/07/05 09:04:58;;;;;;;7.68;2.88;;;;;;;58.55;2.88;99226.63;5091893;28;20092;-80
2022/07/05 09:07:29;;;;;;;5.63;2.60;;;;;;;57.72;2.85;99235.53;5041248;28;20062;-79
2022/07/05 09:10:00;;;;;;;6.13;2.60;;;;;;;57.05;3.52;99232.34;5057061;28;20092;-81
2022/07/05 09:12:26;;;;;;;2.95;2.65;;;;;;;56.40;3.46;99229.28;5054774;28;20048;-81
2022/07/05 09:14:56;;;;;;;2.83;2.50;;;;;;;57.28;3.34;99220.22;5056923;28;20048;-81
2022/07/05 09:17:26;;;;;;;6.95;2.70;;;;;;;57.58;2.76;99181.94;5056019;28;21020;-84
2022/07/05 09:20:09;;;;;;;8.40;2.78;;;;;;;58.55;2.82;99203.75;5024491;28;20495;-82
2022/07/05 09:22:45;;;;;;;7.82;2.65;;;;;;;58.54;2.65;99205.03;5056320;28;20472;-81
2022/07/05 09:25:17;;;;;;;3.25;2.58;;;;;;;59.04;2.59;99205.91;5076479;28;20066;-82
2022/07/05 09:27:55;;;;;;;7.95;2.70;;;;;;;57.39;3.28;99197.63;5073713;28;20192;-77
2022/07/05 09:30:30;;;;;;;6.20;3.00;;;;;;;56.49;3.67;99197.88;5072483;28;20054;-76
2022/07/05 09:33:15;;;;;;;13.02;3.28;;;;;;;56.46;3.65;99193.94;5076609;28;20108;-73
2022/07/05 09:35:42;;;;;;;6.82;2.85;;;;;;;58.03;2.80;99193.06;5069319;28;20043;-73
2022/07/05 09:38:19;;;;;;;5.10;2.60;;;;;;;58.38;2.80;99202.63;5062603;28;20059;-73
2022/07/05 09:41:00;;;;;;;8.52;3.50;;;;;;;58.73;2.45;99215.00;5073652;28;20052;-73
2022/07/05 09:43:27;;;;;;;8.48;2.75;;;;;;;57.56;2.93;99190.25;5065412;28;20483;-77
2022/07/05 09:46:02;;;;;;;5.30;3.17;;;;;;;57.10;3.16;99188.88;5054059;28;20043;-74
2022/07/05 09:48:30;;;;;;;7.43;2.90;;;;;;;56.44;3.53;99176.47;5063714;28;20079;-75
2022/07/05 09:51:07;;;;;;;3.00;2.80;;;;;;;55.91;3.82;99176.03;5073103;28;20040;-76
2022/07/05 09:53:50;;;;;;;7.10;2.90;;;;;;;55.05;3.94;99179.25;5078540;28;20139;-76
2022/07/05 09:56:17;;;;;;;6.43;3.15;;;;;;;54.17;4.27;99173.28;5052228;28;20040;-76
2022/07/05 09:58:43;;;;;;;5.57;3.35;;;;;;;53.79;4.55;99167.72;5063075;28;20555;-75
2022/07/05 10:01:28;;;;;;;6.45;3.20;;;;;;;54.15;3.99;99153.81;5075432;28;20051;-75
2022/07/05 10:04:00;;;;;;;3.80;3.15;;;;;;;55.31;4.02;99160.69;5064884;28;20036;-75
2022/07/05 10:06:27;;;;;;;9.00;3.00;;;;;;;56.55;3.55;99168.22;5032496;28;20130;-74
2022/07/05 10:08:55;;;;;;;7.03;3.40;;;;;;;55.04;4.09;99160.56;5071413;28;20071;-73
2022/07/05 10:11:22;;;;;;;5.78;3.20;;;;;;;54.19;4.76;99154.50;5056831;28;20036;-74
2022/07/05 10:13:49;;;;;;;11.40;3.40;;;;;;;53.36;5.70;99137.13;5061722;28;20047;-74
2022/07/05 10:16:20;;;;;;;6.93;3.50;;;;;;;53.35;5.05;99146.09;5037231;28;20033;-76
2022/07/05 10:18:48;;;;;;;38.15;4.85;;;;;;;53.33;5.34;99138.03;5078552;28;20398;-74
2022/07/05 10:21:15;;;;;;;11.15;5.82;;;;;;;55.02;4.32;99145.22;5041259;28;20047;-76
2022/07/05 10:23:46;;;;;;;5.75;3.75;;;;;;;55.90;3.71;99151.63;5084851;28;20044;-74
2022/07/05 10:26:13;;;;;;;11.85;4.28;;;;;;;56.32;3.72;99145.28;5073387;28;20040;-77
2022/07/05 10:28:47;;;;;;;8.15;3.72;;;;;;;56.24;3.67;99148.44;5090298;28;20610;-74
2022/07/05 10:31:14;;;;;;;4.90;3.33;;;;;;;55.39;4.02;99138.38;5083832;28;20517;-78
2022/07/05 10:33:41;;;;;;;5.10;3.92;;;;;;;54.94;4.53;99129.69;5082102;28;20052;-80
2022/07/05 10:36:10;;;;;;;10.10;5.45;;;;;;;55.17;4.17;99118.56;5075166;28;20044;-80
2022/07/05 10:38:41;;;;;;;6.38;3.42;;;;;;;54.79;4.15;99112.38;5075711;28;20067;-79
2022/07/05 10:41:09;;;;;;;9.15;3.50;;;;;;;54.39;4.53;99112.28;5075982;28;20093;-82
2022/07/05 10:43:36;;;;;;;13.88;4.80;;;;;;;52.58;5.88;99108.84;5040929;28;20131;-80
2022/07/05 10:46:07;;;;;;;11.60;3.78;;;;;;;50.83;6.93;99112.31;5062418;28;20058;-81
2022/07/05 10:48:34;;;;;;;9.27;3.92;;;;;;;50.87;7.01;99100.91;5074579;28;20127;-80
2022/07/05 10:51:16;;;;;;;12.60;5.93;;;;;;;51.89;6.52;99096.25;5057222;28;20089;-81
2022/07/05 10:53:41;;;;;;;8.57;4.97;;;;;;;51.59;6.86;99093.84;5032029;28;20134;-82
2022/07/05 10:56:12;;;;;;;4.88;3.85;;;;;;;51.39;6.39;99084.69;5052376;28;20158;-81
2022/07/05 10:58:41;;;;;;;10.55;4.93;;;;;;;50.72;7.31;99079.88;5106851;28;20051;-80
2022/07/05 11:01:22;;;;;;;7.78;3.88;;;;;;;51.92;6.47;99104.66;5024608;28;20055;-82
2022/07/05 11:04:01;;;;;;;9.25;4.40;;;;;;;53.02;5.73;99105.81;5092138;28;20051;-82
2022/07/05 11:06:33;;;;;;;7.75;4.97;;;;;;;53.14;5.55;99087.97;5055533;28;20048;-82
2022/07/05 11:09:20;;;;;;;11.52;3.60;;;;;;;53.35;5.12;99104.31;5056624;28;20503;-82
2022/07/05 11:12:04;;;;;;;8.70;4.93;;;;;;;52.92;6.01;99095.56;5056937;28;20624;-83
2022/07/05 11:14:36;;;;;;;8.57;4.15;;;;;;;52.35;6.28;99090.06;5086531;28;20143;-83
2022/07/05 11:17:25;;;;;;;11.05;4.03;;;;;;;51.45;6.89;99077.22;5074343;28;20059;-81
2022/07/05 11:19:57;;;;;;;7.82;4.00;;;;;;;49.95;7.94;99088.72;5062090;28;20433;-82
2022/07/05 11:22:24;;;;;;;9.57;3.88;;;;;;;49.25;8.09;99083.56;5089688;28;20442;-82
2022/07/05 11:24:57;;;;;;;14.35;6.57;;;;;;;49.03;8.28;99077.47;5067212;28;20044;-83
2022/07/05 11:27:24;;;;;;;10.45;4.40;;;;;;;48.29;8.72;99084.19;5072000;28;20051;-81
2022/07/05 11:29:57;;;;;;;5.32;4.28;;;;;;;47.31;9.83;99071.16;5039643;28;20048;-82
2022/07/05 11:32:37;;;;;;;9.27;4.53;;;;;;;46.44;10.06;99090.16;5039510;28;20060;-80
2022/07/05 11:35:19;;;;;;;11.73;4.55;;;;;;;45.16;10.95;99078.84;5055736;28;20044;-81
2022/07/05 11:37:59;;;;;;;5.40;4.20;;;;;;;43.99;11.72;99080.50;5070974;28;20048;-81
2022/07/05 11:40:29;;;;;;;5.50;4.30;;;;;;;43.19;12.09;99084.34;5072482;28;20145;-81